Time;durP1;ratioP1;P1;durP2;ratioP2;P2;SDS_P1;SDS_P2;PMS_P1;PMS_P2;Temp;Humidity;BMP_temperature;BMP_pressure;BME280_temperature;BME280_humidity;BME280_pressure;Samples;Min_cycle;Max_cycle;Signal;HPM_P1;HPM_P2
2021/03/09 00:00:10;;;;;;;1999.90;999.90;;;4.30;99.90;;;;;;5005286;28;20054;-68
2021/03/09 00:02:36;;;;;;;1999.90;999.90;;;4.30;99.80;;;;;;5014145;28;20477;-69
2021/03/09 00:05:04;;;;;;;1999.90;999.90;;;4.30;99.90;;;;;;5007529;28;20050;-68
2021/03/09 00:07:30;;;;;;;1999.90;999.90;;;4.30;99.90;;;;;;5014790;28;20149;-68
2021/03/09 00:09:57;;;;;;;1999.90;999.90;;;4.30;99.90;;;;;;5022216;28;20060;-69
2021/03/09 00:12:23;;;;;;;1999.90;999.90;;;4.30;99.90;;;;;;5033216;28;20058;-69
2021/03/09 00:14:49;;;;;;;1999.90;999.90;;;4.30;99.90;;;;;;5021486;28;20635;-68
2021/03/09 00:17:29;;;;;;;1999.90;999.90;;;4.30;99.90;;;;;;5015348;28;20054;-69
2021/03/09 00:19:56;;;;;;;1999.90;999.90;;;4.30;99.90;;;;;;5049486;28;20054;-69
2021/03/09 00:22:22;;;;;;;1999.90;999.90;;;4.30;99.90;;;;;;5015552;28;20054;-68
2021/03/09 00:24:49;;;;;;;1999.90;999.90;;;4.30;99.00;;;;;;5099028;27;20045;-69
2021/03/09 00:27:15;;;;;;;1999.90;999.90;;;4.30;99.90;;;;;;5009429;28;20482;-69
2021/03/09 00:29:41;;;;;;;1999.90;999.90;;;4.30;99.90;;;;;;5108910;27;20410;-69
2021/03/09 00:32:09;;;;;;;1999.90;999.90;;;4.30;99.90;;;;;;5005978;28;20100;-68
2021/03/09 00:34:36;;;;;;;1999.90;999.90;;;4.30;99.90;;;;;;5017734;28;20056;-69
2021/03/09 00:37:03;;;;;;;1999.90;999.90;;;4.30;99.90;;;;;;5006027;28;20050;-69
2021/03/09 00:39:29;;;;;;;1999.90;999.90;;;4.30;98.70;;;;;;5013334;28;20140;-68
2021/03/09 00:41:56;;;;;;;1999.90;999.90;;;4.30;99.90;;;;;;5024811;28;20057;-69
2021/03/09 00:44:23;;;;;;;1999.90;999.90;;;4.30;99.90;;;;;;5099039;27;20054;-68
2021/03/09 00:46:50;;;;;;;1999.90;999.90;;;4.30;99.90;;;;;;5007985;28;20045;-69
2021/03/09 00:49:18;;;;;;;1999.90;999.90;;;4.30;99.90;;;;;;5049010;28;20487;-69
2021/03/09 00:51:44;;;;;;;1999.90;999.90;;;4.30;99.90;;;;;;5010994;28;20050;-69
2021/03/09 00:54:11;;;;;;;1535.25;783.25;;;4.30;99.90;;;;;;5046947;28;20046;-69
2021/03/09 00:56:37;;;;;;;1999.90;999.90;;;4.30;99.90;;;;;;5011300;28;20078;-69
2021/03/09 00:59:03;;;;;;;1999.90;999.90;;;4.20;99.90;;;;;;5048384;28;20056;-69
2021/03/09 01:01:29;;;;;;;1999.90;999.90;;;4.30;99.90;;;;;;5009284;28;20379;-69
2021/03/09 01:03:56;;;;;;;1999.90;999.90;;;4.20;99.90;;;;;;5001910;28;20058;-69
2021/03/09 01:06:22;;;;;;;1999.90;999.90;;;4.20;99.90;;;;;;5020001;28;20244;-69
2021/03/09 01:08:48;;;;;;;1999.90;999.90;;;4.20;99.90;;;;;;5014034;28;20057;-69
2021/03/09 01:11:14;;;;;;;1999.90;999.90;;;4.20;99.90;;;;;;5022580;28;20038;-68
2021/03/09 01:13:40;;;;;;;1999.90;999.90;;;4.20;99.90;;;;;;5029062;28;20435;-69
2021/03/09 01:16:07;;;;;;;1999.90;999.90;;;4.20;99.90;;;;;;5018791;28;20049;-68
2021/03/09 01:18:33;;;;;;;1999.90;999.90;;;4.20;99.90;;;;;;5021089;28;20081;-68
2021/03/09 01:21:00;;;;;;;1999.90;999.90;;;4.20;99.90;;;;;;5050849;28;20050;-69
2021/03/09 01:23:26;;;;;;;1999.90;999.90;;;4.20;99.90;;;;;;5014643;28;20065;-68
2021/03/09 01:25:52;;;;;;;1565.22;811.42;;;4.20;99.90;;;;;;5015451;28;20057;-69
2021/03/09 01:28:18;;;;;;;1567.82;814.28;;;4.20;99.90;;;;;;5027905;28;20149;-69
2021/03/09 01:30:44;;;;;;;1999.90;999.90;;;4.20;99.90;;;;;;5035665;28;20038;-68
2021/03/09 01:33:11;;;;;;;1999.90;999.90;;;4.20;99.90;;;;;;5018406;28;20052;-68
2021/03/09 01:35:38;;;;;;;1999.90;999.90;;;4.20;99.90;;;;;;5034789;28;20448;-69
2021/03/09 01:38:05;;;;;;;1572.45;818.17;;;4.20;99.90;;;;;;5008478;28;20060;-68
2021/03/09 01:40:32;;;;;;;834.15;560.95;;;4.30;99.90;;;;;;5019409;28;20063;-69
2021/03/09 01:42:58;;;;;;;534.30;496.92;;;4.20;99.90;;;;;;5018926;28;20081;-68
2021/03/09 01:45:25;;;;;;;519.58;488.35;;;4.20;99.90;;;;;;5026200;28;20132;-69
2021/03/09 01:47:56;;;;;;;658.22;614.83;;;4.20;99.90;;;;;;5015880;28;20041;-68
2021/03/09 01:50:25;;;;;;;630.33;590.30;;;4.30;99.90;;;;;;5029893;28;20057;-69
2021/03/09 01:52:54;;;;;;;790.78;729.45;;;4.20;99.90;;;;;;5039102;28;20053;-68
2021/03/09 01:55:21;;;;;;;737.47;686.20;;;4.20;99.90;;;;;;5036574;28;21281;-68
2021/03/09 01:57:49;;;;;;;718.60;671.80;;;4.30;99.90;;;;;;5009738;28;20489;-69
2021/03/09 02:00:15;;;;;;;786.67;734.35;;;4.20;99.90;;;;;;5012790;28;20454;-69
2021/03/09 02:02:41;;;;;;;795.85;742.80;;;4.20;99.90;;;;;;5043122;28;20071;-69
2021/03/09 02:05:10;;;;;;;761.38;712.10;;;4.30;99.90;;;;;;5009737;28;20129;-69
2021/03/09 02:07:36;;;;;;;801.23;747.07;;;4.30;99.90;;;;;;5043945;28;20531;-68
2021/03/09 02:10:06;;;;;;;770.90;718.03;;;4.30;99.90;;;;;;5016755;28;20044;-68
2021/03/09 02:13:08;;;;;;;744.90;697.03;;;4.20;99.90;;;;;;5059339;28;20042;-69
2021/03/09 02:15:37;;;;;;;744.22;696.35;;;4.20;99.90;;;;;;5009471;28;20057;-68
2021/03/09 02:18:30;;;;;;;685.63;641.20;;;4.20;99.90;;;;;;5020014;28;20204;-68
2021/03/09 02:21:31;;;;;;;648.60;608.22;;;4.30;99.90;;;;;;5014166;28;20054;-69
2021/03/09 02:24:44;;;;;;;478.25;452.48;;;4.20;99.90;;;;;;5007193;28;20095;-68
2021/03/09 02:27:33;;;;;;;509.55;481.38;;;4.20;99.90;;;;;;5066987;28;20063;-69
2021/03/09 02:30:08;;;;;;;463.67;438.95;;;4.20;99.90;;;;;;5010762;28;20096;-69
2021/03/09 02:32:39;;;;;;;519.20;490.85;;;4.20;99.90;;;;;;5109717;27;20042;-69
2021/03/09 02:35:10;;;;;;;536.45;506.48;;;4.30;99.90;;;;;;5011561;28;20065;-69
2021/03/09 02:37:38;;;;;;;461.15;436.70;;;4.30;99.90;;;;;;5016795;28;20137;-69
2021/03/09 02:40:10;;;;;;;612.60;576.65;;;4.30;99.90;;;;;;5021722;28;20141;-69
2021/03/09 02:42:56;;;;;;;665.10;624.65;;;4.20;99.90;;;;;;5010330;28;20046;-69
2021/03/09 02:45:23;;;;;;;667.88;628.58;;;4.20;99.90;;;;;;5026972;28;20072;-69
2021/03/09 02:47:50;;;;;;;697.13;654.28;;;4.30;99.90;;;;;;5010548;28;20051;-68
2021/03/09 02:50:21;;;;;;;561.92;530.50;;;4.20;99.90;;;;;;5022700;28;20709;-69
2021/03/09 02:52:52;;;;;;;538.65;508.48;;;4.20;99.90;;;;;;5033278;28;20047;-69
2021/03/09 02:55:20;;;;;;;464.27;439.75;;;4.30;99.90;;;;;;5019051;28;20042;-69
2021/03/09 02:57:49;;;;;;;348.63;330.45;;;4.30;99.90;;;;;;5049837;28;20058;-69
2021/03/09 03:00:16;;;;;;;273.13;259.10;;;4.30;99.90;;;;;;5034038;28;20060;-69
2021/03/09 03:02:43;;;;;;;255.75;242.82;;;4.30;99.90;;;;;;5008965;28;20053;-69
2021/03/09 03:05:11;;;;;;;245.57;232.45;;;4.30;99.90;;;;;;5012077;28;20046;-69
2021/03/09 03:07:39;;;;;;;120.93;114.13;;;4.30;99.90;;;;;;5013317;28;20605;-69
2021/03/09 03:10:10;;;;;;;54.30;50.58;;;4.30;99.90;;;;;;5030580;28;20046;-69
2021/03/09 03:12:36;;;;;;;34.97;31.88;;;4.30;99.90;;;;;;5101706;27;20049;-68
2021/03/09 03:15:05;;;;;;;22.70;13.85;;;4.30;99.90;;;;;;5012511;28;20068;-69
2021/03/09 03:17:32;;;;;;;23.73;11.85;;;4.30;99.90;;;;;;5013981;28;20072;-68
2021/03/09 03:20:00;;;;;;;28.98;12.05;;;4.30;99.90;;;;;;5023422;28;20048;-69
2021/03/09 03:22:27;;;;;;;26.95;14.45;;;4.30;99.90;;;;;;5044581;28;20057;-69
2021/03/09 03:24:54;;;;;;;23.08;14.85;;;4.40;99.90;;;;;;5028897;28;20146;-68
2021/03/09 03:27:20;;;;;;;22.73;13.50;;;4.40;99.90;;;;;;5025131;28;20060;-69
2021/03/09 03:29:47;;;;;;;20.17;13.77;;;4.30;99.90;;;;;;5006877;28;20046;-69
2021/03/09 03:32:15;;;;;;;25.13;16.92;;;4.40;99.90;;;;;;5049317;28;20050;-68
2021/03/09 03:34:44;;;;;;;23.40;13.57;;;4.40;99.90;;;;;;5010105;28;20095;-70
2021/03/09 03:37:13;;;;;;;21.30;11.45;;;4.40;99.90;;;;;;5031909;28;20654;-69
2021/03/09 03:39:39;;;;;;;19.55;11.85;;;4.40;99.90;;;;;;5102429;27;20175;-69
2021/03/09 03:42:07;;;;;;;20.23;13.15;;;4.40;99.90;;;;;;5034540;28;20601;-68
2021/03/09 03:44:34;;;;;;;21.00;14.48;;;4.40;99.90;;;;;;5019786;28;20095;-69
2021/03/09 03:47:00;;;;;;;20.40;16.02;;;4.40;99.90;;;;;;5027500;28;20062;-69
2021/03/09 03:49:28;;;;;;;22.02;15.70;;;4.50;99.90;;;;;;5034155;28;20065;-69
2021/03/09 03:52:18;;;;;;;21.77;15.75;;;4.50;99.90;;;;;;5026579;28;20370;-69
2021/03/09 03:54:54;;;;;;;21.92;15.18;;;4.50;99.90;;;;;;5038933;28;20129;-69
2021/03/09 03:57:31;;;;;;;23.25;20.75;;;4.50;99.90;;;;;;5016795;28;20438;-68
2021/03/09 04:00:01;;;;;;;17.90;10.70;;;4.50;99.90;;;;;;5015733;28;20072;-69
2021/03/09 04:02:28;;;;;;;21.25;11.40;;;4.50;99.90;;;;;;5012781;28;20164;-69
2021/03/09 04:04:55;;;;;;;23.02;16.52;;;4.50;99.90;;;;;;5017162;28;20122;-68
2021/03/09 04:07:26;;;;;;;25.40;18.45;;;4.50;99.90;;;;;;5032927;28;20488;-69
2021/03/09 04:09:55;;;;;;;23.35;14.57;;;4.50;99.90;;;;;;5016449;28;20056;-68
2021/03/09 04:12:25;;;;;;;24.48;15.00;;;4.50;99.90;;;;;;5092921;27;20046;-69
2021/03/09 04:14:51;;;;;;;26.20;21.10;;;4.50;99.90;;;;;;5012194;28;20042;-68
2021/03/09 04:17:19;;;;;;;22.17;14.25;;;4.50;99.90;;;;;;5045507;28;20043;-68
2021/03/09 04:19:46;;;;;;;26.27;22.85;;;4.50;99.90;;;;;;5021932;28;20045;-68
2021/03/09 04:22:15;;;;;;;24.52;21.90;;;4.50;99.90;;;;;;5026530;28;20141;-68
2021/03/09 04:24:43;;;;;;;22.08;16.77;;;4.60;99.90;;;;;;5020082;28;20482;-68
2021/03/09 04:27:20;;;;;;;25.23;22.50;;;4.60;99.90;;;;;;5042571;28;20061;-68
2021/03/09 04:29:52;;;;;;;16.85;14.00;;;4.60;99.90;;;;;;5012378;28;20058;-69
2021/03/09 04:32:19;;;;;;;20.27;16.33;;;4.60;99.90;;;;;;5025968;28;20124;-68
2021/03/09 04:34:47;;;;;;;18.52;14.45;;;4.60;99.90;;;;;;5009312;28;20072;-68
2021/03/09 04:37:34;;;;;;;24.83;22.02;;;4.60;99.90;;;;;;5023202;28;20054;-68
2021/03/09 04:40:02;;;;;;;22.33;16.98;;;4.60;99.90;;;;;;5034630;28;20106;-68
2021/03/09 04:42:29;;;;;;;22.58;15.95;;;4.60;99.90;;;;;;5018541;28;20392;-69
2021/03/09 04:44:55;;;;;;;20.55;13.52;;;4.60;99.90;;;;;;5024154;28;20412;-68
2021/03/09 04:47:21;;;;;;;25.80;17.50;;;4.60;99.90;;;;;;5037482;28;20047;-69
2021/03/09 04:49:53;;;;;;;34.95;25.45;;;4.60;99.90;;;;;;5041008;28;20054;-68
2021/03/09 04:52:19;;;;;;;29.75;25.63;;;4.60;99.90;;;;;;5031593;28;20060;-68
2021/03/09 04:54:46;;;;;;;33.83;25.15;;;4.60;99.90;;;;;;5019255;28;20048;-68
2021/03/09 04:57:12;;;;;;;29.98;26.45;;;4.60;99.90;;;;;;5024855;28;20048;-68
2021/03/09 04:59:38;;;;;;;31.05;23.10;;;4.60;99.90;;;;;;5021441;28;20042;-68
2021/03/09 05:02:05;;;;;;;29.15;22.50;;;4.60;99.90;;;;;;5014545;28;20058;-67
2021/03/09 05:04:31;;;;;;;26.90;18.08;;;4.70;99.90;;;;;;5004334;28;20058;-68
2021/03/09 05:06:57;;;;;;;19.55;11.50;;;4.70;99.90;;;;;;5005470;28;20528;-68
2021/03/09 05:09:24;;;;;;;20.05;11.63;;;4.70;99.90;;;;;;5024321;28;20066;-68
2021/03/09 05:11:50;;;;;;;30.42;27.50;;;4.70;99.90;;;;;;5022594;28;20061;-68
2021/03/09 05:14:16;;;;;;;22.02;11.63;;;4.70;99.90;;;;;;5050538;28;20140;-68
2021/03/09 05:16:42;;;;;;;22.92;14.15;;;4.70;99.90;;;;;;5029743;28;20165;-68
2021/03/09 05:19:09;;;;;;;21.05;10.40;;;4.70;99.90;;;;;;5024172;28;20373;-68
2021/03/09 05:21:35;;;;;;;33.38;29.85;;;4.70;99.90;;;;;;5027051;28;20047;-68
2021/03/09 05:24:01;;;;;;;23.58;17.38;;;4.70;99.90;;;;;;5008139;28;20050;-69
2021/03/09 05:26:30;;;;;;;19.83;9.18;;;4.70;99.90;;;;;;5024135;28;20548;-68
2021/03/09 05:28:56;;;;;;;20.65;10.00;;;4.70;99.90;;;;;;5023185;28;20074;-68
2021/03/09 05:31:23;;;;;;;17.92;8.63;;;4.70;99.90;;;;;;5012213;28;20050;-68
2021/03/09 05:33:49;;;;;;;19.35;9.10;;;4.70;99.90;;;;;;5013984;28;20149;-68
2021/03/09 05:36:15;;;;;;;25.38;12.68;;;4.70;99.90;;;;;;5009362;28;20046;-68
2021/03/09 05:38:42;;;;;;;17.75;11.57;;;4.70;99.90;;;;;;5010107;28;20099;-68
2021/03/09 05:41:08;;;;;;;26.45;14.13;;;4.70;99.90;;;;;;5018737;28;20066;-68
2021/03/09 05:43:35;;;;;;;25.88;13.38;;;4.70;99.90;;;;;;5017617;28;20149;-68
2021/03/09 05:46:02;;;;;;;25.23;12.70;;;4.80;99.90;;;;;;5026345;28;20052;-68
2021/03/09 05:48:28;;;;;;;24.80;12.85;;;4.80;99.90;;;;;;5015896;28;20129;-68
2021/03/09 05:50:55;;;;;;;27.70;15.48;;;4.80;99.90;;;;;;5049664;28;20042;-69
2021/03/09 05:53:22;;;;;;;27.88;16.40;;;4.80;99.90;;;;;;5008786;28;20058;-68
2021/03/09 05:55:48;;;;;;;29.73;20.55;;;4.80;99.90;;;;;;5035721;28;20062;-68
2021/03/09 05:58:16;;;;;;;29.98;21.95;;;4.80;99.90;;;;;;5013626;28;20129;-69
2021/03/09 06:00:42;;;;;;;25.52;21.27;;;4.80;99.90;;;;;;5006298;28;20062;-68
2021/03/09 06:03:08;;;;;;;24.83;19.05;;;4.90;99.90;;;;;;5021306;28;20134;-68
2021/03/09 06:05:36;;;;;;;43.15;39.35;;;4.90;99.90;;;;;;5017392;28;20100;-68
2021/03/09 06:08:02;;;;;;;31.45;28.30;;;4.90;99.90;;;;;;5030119;28;20046;-68
2021/03/09 06:10:28;;;;;;;34.42;31.08;;;5.00;99.90;;;;;;5024027;28;20136;-68
2021/03/09 06:12:55;;;;;;;45.35;41.63;;;5.00;99.90;;;;;;5016187;28;20142;-69
2021/03/09 06:15:21;;;;;;;40.88;37.25;;;5.00;99.90;;;;;;5030034;28;20068;-69
2021/03/09 06:17:58;;;;;;;39.00;35.60;;;5.10;99.90;;;;;;5019950;28;20140;-68
2021/03/09 06:20:30;;;;;;;35.53;32.45;;;5.10;99.90;;;;;;5000435;28;20062;-68
2021/03/09 06:22:58;;;;;;;28.65;22.08;;;5.10;99.90;;;;;;5013854;28;20501;-68
2021/03/09 06:25:37;;;;;;;;;;;5.20;99.90;;;;;;5008090;28;20052;-68
2021/03/09 06:28:05;;;;;;;30.23;27.42;;;5.20;99.90;;;;;;5023459;28;20010;-68
2021/03/09 06:30:34;;;;;;;28.40;19.00;;;5.20;99.90;;;;;;5003966;28;20149;-69
2021/03/09 06:33:03;;;;;;;22.27;19.70;;;5.30;99.90;;;;;;5026456;28;20069;-68
2021/03/09 06:35:41;;;;;;;25.95;19.95;;;5.30;99.90;;;;;;5041551;28;20056;-68
2021/03/09 06:38:23;;;;;;;24.63;21.27;;;5.40;99.90;;;;;;4992831;28;20060;-69
2021/03/09 06:41:19;;;;;;;24.17;21.05;;;5.40;99.90;;;;;;4998286;28;20054;-69
2021/03/09 06:43:58;;;;;;;24.08;19.50;;;5.40;99.90;;;;;;5009726;28;20046;-69
2021/03/09 06:46:24;;;;;;;24.17;21.67;;;5.50;99.90;;;;;;4993777;28;20054;-68
2021/03/09 06:49:01;;;;;;;49.72;46.05;;;5.50;99.90;;;;;;4987863;28;20060;-68
2021/03/09 06:51:33;;;;;;;17.48;12.23;;;5.50;99.90;;;;;;4988529;28;20046;-68
2021/03/09 06:54:00;;;;;;;14.98;8.98;;;5.50;99.90;;;;;;4991615;28;20056;-69
2021/03/09 06:56:27;;;;;;;14.55;7.75;;;5.60;99.90;;;;;;4988377;28;20224;-68
2021/03/09 06:58:53;;;;;;;12.07;6.55;;;5.60;99.90;;;;;;5002895;28;20294;-69
2021/03/09 07:01:20;;;;;;;10.52;5.95;;;5.60;99.90;;;;;;4995296;28;20045;-69
2021/03/09 07:03:46;;;;;;;10.00;6.07;;;5.60;99.90;;;;;;5013683;28;20048;-68
2021/03/09 07:06:13;;;;;;;10.68;5.70;;;5.60;99.90;;;;;;5016635;28;20144;-68
2021/03/09 07:08:39;;;;;;;7.90;4.50;;;5.60;99.90;;;;;;5023901;28;20190;-69
2021/03/09 07:11:06;;;;;;;9.13;4.40;;;5.70;99.90;;;;;;5014328;28;20099;-68
2021/03/09 07:13:34;;;;;;;7.30;4.20;;;5.70;99.90;;;;;;5039436;28;20047;-68
2021/03/09 07:16:01;;;;;;;6.50;3.20;;;5.70;99.90;;;;;;5023566;28;20115;-68
2021/03/09 07:18:30;;;;;;;4.32;3.22;;;5.70;99.90;;;;;;5008292;28;20089;-69
2021/03/09 07:20:56;;;;;;;6.28;3.30;;;5.70;99.90;;;;;;5005032;28;20050;-68
2021/03/09 07:23:25;;;;;;;7.10;5.10;;;5.70;99.90;;;;;;5043188;28;20131;-69
2021/03/09 07:25:57;;;;;;;5.78;4.75;;;5.80;99.90;;;;;;4997763;28;20042;-68
2021/03/09 07:28:29;;;;;;;6.32;5.72;;;5.80;99.90;;;;;;5001907;28;20050;-69
2021/03/09 07:30:57;;;;;;;6.18;5.45;;;5.80;99.90;;;;;;5004643;28;20110;-68
2021/03/09 07:33:30;;;;;;;9.38;8.05;;;5.80;99.90;;;;;;5005056;28;20057;-68
2021/03/09 07:35:57;;;;;;;5.80;4.97;;;5.80;99.90;;;;;;4993438;28;20081;-68
2021/03/09 07:38:24;;;;;;;12.95;12.10;;;5.80;99.90;;;;;;4992438;28;20528;-68
2021/03/09 07:40:50;;;;;;;7.05;6.43;;;5.90;99.90;;;;;;5053946;28;20052;-68
2021/03/09 07:43:17;;;;;;;4.82;3.25;;;5.90;99.90;;;;;;5027974;28;20046;-69
2021/03/09 07:45:43;;;;;;;14.77;13.98;;;5.90;99.90;;;;;;5052933;28;20071;-69
2021/03/09 07:48:20;;;;;;;10.77;10.07;;;5.90;99.90;;;;;;5024374;28;20097;-69
2021/03/09 07:50:48;;;;;;;12.40;11.32;;;5.90;99.90;;;;;;5040829;28;20486;-68
2021/03/09 07:53:19;;;;;;;8.88;8.27;;;5.90;99.90;;;;;;5009898;28;20105;-69
2021/03/09 07:55:48;;;;;;;19.67;18.55;;;6.00;99.90;;;;;;5029642;28;20022;-69
2021/03/09 07:58:25;;;;;;;12.30;11.57;;;6.00;99.90;;;;;;4995963;28;20436;-68
2021/03/09 08:01:04;;;;;;;5.25;4.85;;;6.10;99.90;;;;;;5002969;28;20026;-69
2021/03/09 08:03:40;;;;;;;6.38;5.90;;;6.10;99.90;;;;;;5098363;27;20041;-69
2021/03/09 08:06:14;;;;;;;8.40;7.80;;;6.10;99.90;;;;;;5000861;28;20568;-68
2021/03/09 08:08:44;;;;;;;10.00;9.45;;;6.10;99.90;;;;;;5007650;28;20463;-69
2021/03/09 08:11:19;;;;;;;5.03;4.63;;;6.10;99.90;;;;;;5010031;28;20362;-69
2021/03/09 08:13:49;;;;;;;6.60;6.18;;;6.10;99.90;;;;;;5002986;28;20026;-69
2021/03/09 08:16:25;;;;;;;8.75;8.25;;;6.20;99.90;;;;;;5008726;28;20137;-68
2021/03/09 08:18:57;;;;;;;7.55;7.03;;;6.20;99.90;;;;;;4999132;28;20057;-69
2021/03/09 08:21:46;;;;;;;6.70;6.07;;;6.30;99.90;;;;;;5001193;28;20123;-69
2021/03/09 08:24:12;;;;;;;4.55;4.15;;;6.30;99.90;;;;;;5004829;28;20050;-69
2021/03/09 08:26:38;;;;;;;8.13;7.63;;;6.30;99.90;;;;;;4999782;28;20046;-68
2021/03/09 08:29:31;;;;;;;6.00;5.57;;;6.30;99.90;;;;;;5000933;28;20123;-69
2021/03/09 08:32:25;;;;;;;5.55;5.25;;;6.40;99.90;;;;;;5005793;28;20377;-69
2021/03/09 08:35:10;;;;;;;10.68;10.00;;;6.40;99.90;;;;;;5002388;28;20675;-69
2021/03/09 08:37:37;;;;;;;8.40;7.80;;;6.40;99.90;;;;;;5001783;28;20042;-69
2021/03/09 08:40:08;;;;;;;14.00;13.27;;;6.40;99.90;;;;;;5001638;28;20054;-69
2021/03/09 08:43:03;;;;;;;7.93;7.43;;;6.40;99.90;;;;;;5018469;27;20145;-69
2021/03/09 08:45:39;;;;;;;5.28;4.88;;;6.50;99.90;;;;;;4999605;28;20091;-69
2021/03/09 08:48:09;;;;;;;75.75;20.15;;;6.50;99.90;;;;;;4998248;28;20043;-69
2021/03/09 08:50:43;;;;;;;240.68;57.85;;;6.50;99.90;;;;;;4997314;28;20136;-69
2021/03/09 08:53:38;;;;;;;10.02;9.45;;;6.60;99.90;;;;;;5010103;28;20050;-69
2021/03/09 08:56:06;;;;;;;14.52;13.80;;;6.70;99.90;;;;;;5001987;28;20062;-69
2021/03/09 08:58:39;;;;;;;15.10;14.30;;;6.70;99.90;;;;;;4997261;28;20119;-69
2021/03/09 09:01:06;;;;;;;12.20;11.55;;;6.80;99.90;;;;;;4998831;28;20053;-69
2021/03/09 09:03:38;;;;;;;10.20;9.50;;;6.90;99.90;;;;;;4998744;28;20065;-69
2021/03/09 09:06:05;;;;;;;9.65;8.95;;;7.00;99.90;;;;;;5004996;28;20050;-69
2021/03/09 09:08:33;;;;;;;9.18;8.50;;;7.00;99.90;;;;;;5003547;28;20099;-69
2021/03/09 09:11:00;;;;;;;9.30;8.70;;;7.10;99.90;;;;;;5003854;28;20085;-69
2021/03/09 09:13:31;;;;;;;9.02;8.43;;;7.30;99.90;;;;;;5009295;28;20665;-69
2021/03/09 09:15:58;;;;;;;20.77;19.58;;;7.40;99.90;;;;;;5010358;28;20067;-69
2021/03/09 09:18:24;;;;;;;8.70;8.10;;;7.40;99.90;;;;;;5003473;28;20644;-69
2021/03/09 09:20:51;;;;;;;8.70;8.20;;;7.50;99.90;;;;;;5002016;28;20137;-70
2021/03/09 09:23:19;;;;;;;9.13;8.55;;;7.60;99.90;;;;;;5003915;28;20123;-69
2021/03/09 09:25:47;;;;;;;7.50;7.00;;;7.60;99.90;;;;;;5012087;28;20070;-69
2021/03/09 09:28:27;;;;;;;7.80;7.30;;;7.70;99.90;;;;;;4999346;28;20172;-69
2021/03/09 09:30:55;;;;;;;7.53;7.03;;;7.70;99.90;;;;;;5000708;28;20150;-69
2021/03/09 09:33:40;;;;;;;6.07;5.55;;;7.70;99.90;;;;;;4998535;28;20058;-69
2021/03/09 09:36:07;;;;;;;6.25;5.82;;;7.70;99.90;;;;;;4995868;28;20060;-69
2021/03/09 09:38:33;;;;;;;6.38;5.88;;;7.70;99.90;;;;;;4999728;28;20061;-69
2021/03/09 09:41:00;;;;;;;6.38;5.95;;;7.70;99.90;;;;;;5011142;28;20069;-69
2021/03/09 09:43:28;;;;;;;4.47;4.07;;;7.70;99.90;;;;;;5002565;28;20050;-69
2021/03/09 09:45:59;;;;;;;4.65;4.28;;;7.70;99.90;;;;;;5001493;28;20073;-69
2021/03/09 09:48:30;;;;;;;4.28;3.97;;;7.70;99.90;;;;;;4996554;28;20054;-69
2021/03/09 09:50:59;;;;;;;4.25;3.78;;;7.60;99.90;;;;;;4999717;28;20146;-69
2021/03/09 09:53:28;;;;;;;4.77;4.33;;;7.60;99.90;;;;;;5096901;27;20053;-69
2021/03/09 09:55:54;;;;;;;;;;;7.50;99.90;;;;;;5005345;28;20054;-69
2021/03/09 09:58:21;;;;;;;3.40;3.10;;;7.50;99.90;;;;;;5000754;28;20357;-69
2021/03/09 10:00:55;;;;;;;6.00;5.60;;;7.50;99.90;;;;;;4994572;28;20050;-69
2021/03/09 10:03:21;;;;;;;5.88;5.47;;;7.60;99.90;;;;;;4992296;28;20502;-69
2021/03/09 10:05:48;;;;;;;6.18;5.78;;;7.80;99.90;;;;;;4999223;28;20047;-69
2021/03/09 10:08:34;;;;;;;7.40;6.93;;;7.90;99.90;;;;;;4993188;28;20075;-69
2021/03/09 10:11:03;;;;;;;4.00;3.67;;;8.00;99.90;;;;;;4991796;28;20168;-69
2021/03/09 10:13:29;;;;;;;4.50;4.18;;;8.10;99.90;;;;;;5000917;28;20146;-69
2021/03/09 10:15:57;;;;;;;4.13;3.72;;;8.00;99.90;;;;;;5096132;27;20057;-70
2021/03/09 10:18:26;;;;;;;3.85;3.55;;;7.90;99.90;;;;;;4994135;28;20058;-69
2021/03/09 10:21:13;;;;;;;3.90;3.60;;;7.80;99.90;;;;;;4997158;28;20050;-69
2021/03/09 10:23:55;;;;;;;4.10;3.70;;;7.70;99.90;;;;;;4994471;28;20122;-70
2021/03/09 10:26:43;;;;;;;4.88;4.47;;;7.70;99.90;;;;;;5005475;28;20061;-69
2021/03/09 10:29:14;;;;;;;5.18;4.80;;;7.60;99.90;;;;;;5004101;28;20045;-69
2021/03/09 10:31:50;;;;;;;5.70;5.30;;;7.60;99.90;;;;;;4998025;28;20049;-69
2021/03/09 10:34:33;;;;;;;3.28;2.97;;;7.60;99.90;;;;;;5001389;28;20546;-69
2021/03/09 10:37:01;;;;;;;4.35;4.05;;;7.60;99.90;;;;;;5001020;28;20046;-70
2021/03/09 10:39:31;;;;;;;4.95;4.65;;;7.70;99.90;;;;;;5009368;28;20053;-69
2021/03/09 10:42:32;;;;;;;5.80;5.47;;;7.70;99.90;;;;;;5004021;28;20081;-70
2021/03/09 10:45:20;;;;;;;2.53;2.33;;;7.80;99.90;;;;;;5001584;28;20053;-69
2021/03/09 10:47:49;;;;;;;2.45;2.25;;;7.80;99.90;;;;;;5002315;28;20046;-69
2021/03/09 10:50:17;;;;;;;2.50;2.30;;;7.80;99.90;;;;;;5007136;28;20070;-69
2021/03/09 10:52:44;;;;;;;2.42;2.22;;;7.80;99.90;;;;;;5005305;28;20049;-69
2021/03/09 10:55:11;;;;;;;2.63;2.42;;;7.80;99.90;;;;;;4997476;28;20081;-70
2021/03/09 10:57:37;;;;;;;2.70;2.17;;;7.80;99.90;;;;;;4998018;28;20058;-70
2021/03/09 11:00:10;;;;;;;2.58;2.38;;;7.80;99.90;;;;;;4997312;28;20054;-69
2021/03/09 11:02:36;;;;;;;2.35;2.15;;;7.90;99.90;;;;;;5005053;28;20058;-69
2021/03/09 11:05:04;;;;;;;4.80;4.50;;;8.00;99.90;;;;;;4998764;28;20463;-69
2021/03/09 11:07:30;;;;;;;3.35;2.78;;;8.10;99.90;;;;;;5004634;28;20050;-69
2021/03/09 11:09:56;;;;;;;2.70;2.50;;;8.20;99.90;;;;;;4997969;28;20107;-70
2021/03/09 11:12:23;;;;;;;2.78;2.25;;;8.20;99.90;;;;;;4997036;28;20405;-69
2021/03/09 11:14:49;;;;;;;3.38;2.40;;;8.30;99.90;;;;;;5003403;28;20054;-69
2021/03/09 11:17:15;;;;;;;2.55;2.35;;;8.20;99.90;;;;;;4997464;28;20085;-69
2021/03/09 11:19:42;;;;;;;2.67;2.47;;;8.20;99.90;;;;;;5003480;28;20114;-69
2021/03/09 11:22:09;;;;;;;3.17;2.70;;;8.20;99.90;;;;;;5004012;28;20062;-69
2021/03/09 11:24:35;;;;;;;2.72;1.98;;;8.10;99.90;;;;;;5010838;28;20049;-69
2021/03/09 11:27:02;;;;;;;2.85;2.63;;;8.10;99.90;;;;;;5006362;28;20432;-70
2021/03/09 11:29:29;;;;;;;2.33;2.13;;;8.00;99.90;;;;;;5000215;28;20052;-69
2021/03/09 11:31:56;;;;;;;2.10;1.90;;;8.00;99.90;;;;;;4999113;28;20140;-70
2021/03/09 11:34:24;;;;;;;2.13;1.90;;;7.90;99.90;;;;;;4998887;28;20500;-69
2021/03/09 11:36:51;;;;;;;3.38;2.38;;;7.90;99.90;;;;;;5003808;28;20058;-69
2021/03/09 11:39:18;;;;;;;2.67;1.50;;;7.80;99.90;;;;;;4997968;28;20345;-70
2021/03/09 11:41:44;;;;;;;1.77;1.63;;;7.70;99.90;;;;;;5005039;28;20050;-69
2021/03/09 11:44:11;;;;;;;1.73;1.60;;;7.60;99.90;;;;;;5005616;28;20060;-69
2021/03/09 11:46:37;;;;;;;1.42;1.30;;;7.60;99.90;;;;;;5008335;28;20050;-70
2021/03/09 11:49:04;;;;;;;1.83;1.73;;;7.60;99.90;;;;;;5005012;28;20133;-70
2021/03/09 11:51:31;;;;;;;3.08;2.85;;;7.50;99.90;;;;;;5006160;28;20047;-69
2021/03/09 11:53:57;;;;;;;5.22;4.95;;;7.50;99.90;;;;;;5009165;28;20393;-70
2021/03/09 11:56:23;;;;;;;7.18;6.78;;;7.50;99.90;;;;;;5002474;28;20508;-69
2021/03/09 11:58:49;;;;;;;7.32;6.97;;;7.60;99.90;;;;;;5005202;28;20143;-69
2021/03/09 12:01:17;;;;;;;7.38;6.97;;;7.60;99.90;;;;;;5000141;28;20056;-69
2021/03/09 12:03:44;;;;;;;10.05;9.52;;;7.60;99.90;;;;;;5000310;28;20058;-70
2021/03/09 12:06:10;;;;;;;5.35;5.05;;;7.70;99.90;;;;;;5009629;28;20038;-69
2021/03/09 12:08:36;;;;;;;11.70;11.10;;;7.70;99.90;;;;;;5014727;28;20125;-69
2021/03/09 12:11:02;;;;;;;3.45;3.22;;;7.80;99.90;;;;;;5002618;28;20046;-70
2021/03/09 12:13:29;;;;;;;2.88;2.67;;;7.90;99.90;;;;;;5101598;27;20473;-70
2021/03/09 12:15:56;;;;;;;1.85;1.70;;;7.90;99.90;;;;;;5011068;28;20501;-70
2021/03/09 12:18:22;;;;;;;1.63;1.52;;;8.00;99.90;;;;;;5012906;28;20053;-69
2021/03/09 12:20:49;;;;;;;1.60;1.50;;;8.10;99.90;;;;;;5015373;28;20050;-70
2021/03/09 12:23:15;;;;;;;2.35;1.60;;;8.10;99.90;;;;;;5007539;28;20057;-69
2021/03/09 12:25:44;;;;;;;2.75;1.67;;;8.10;99.90;;;;;;5002623;28;20099;-69
2021/03/09 12:28:11;;;;;;;1.58;1.48;;;8.10;99.90;;;;;;5000769;28;20525;-69
2021/03/09 12:30:38;;;;;;;2.38;2.17;;;8.10;99.90;;;;;;5003380;28;20067;-70
2021/03/09 12:33:04;;;;;;;1.92;1.67;;;8.10;99.90;;;;;;5001641;28;20146;-70
2021/03/09 12:35:30;;;;;;;1.50;1.33;;;8.00;99.90;;;;;;4997054;28;20159;-70
2021/03/09 12:37:56;;;;;;;2.45;2.25;;;8.00;99.90;;;;;;4998025;28;20064;-70
2021/03/09 12:40:23;;;;;;;2.30;2.10;;;8.00;99.90;;;;;;5001053;28;20050;-70
2021/03/09 12:42:49;;;;;;;2.85;2.65;;;8.00;99.90;;;;;;5000810;28;20048;-69
2021/03/09 12:45:15;;;;;;;2.72;2.53;;;8.10;99.90;;;;;;5001221;28;20154;-69
2021/03/09 12:47:42;;;;;;;5.97;5.63;;;8.10;99.90;;;;;;5003864;28;21120;-70
2021/03/09 12:50:10;;;;;;;1.92;1.73;;;8.10;99.90;;;;;;5000860;28;20057;-70